createdAt,value
2022-12-18T00:00:20.582Z,8.30
2022-12-18T00:01:20.654Z,9.30
2022-12-18T00:02:20.588Z,8.20
2022-12-18T00:03:20.657Z,7.70
2022-12-18T00:04:20.589Z,8.20
2022-12-18T00:05:20.542Z,8.90
2022-12-18T00:06:20.520Z,9.40
2022-12-18T00:07:20.528Z,8.40
2022-12-18T00:08:20.495Z,8.50
2022-12-18T00:09:20.502Z,9.90
2022-12-18T00:10:20.473Z,8.00
2022-12-18T00:11:20.481Z,8.70
2022-12-18T00:12:20.485Z,7.80
2022-12-18T00:13:20.457Z,8.70
2022-12-18T00:14:20.430Z,8.90
2022-12-18T00:15:20.441Z,9.40
2022-12-18T00:16:20.447Z,8.80
2022-12-18T00:17:20.426Z,8.10
2022-12-18T00:18:20.668Z,8.40
2022-12-18T00:19:20.388Z,8.70
2022-12-18T00:20:20.361Z,7.60
2022-12-18T00:21:20.371Z,8.70
2022-12-18T00:22:20.345Z,8.60
2022-12-18T00:23:20.360Z,8.70
2022-12-18T00:24:20.313Z,9.00
2022-12-18T00:25:20.335Z,7.80
2022-12-18T00:26:20.298Z,8.10
2022-12-18T00:27:20.300Z,7.90
2022-12-18T00:28:20.293Z,7.40
2022-12-18T00:29:20.280Z,8.70
2022-12-18T00:30:20.253Z,8.40
2022-12-18T00:31:20.338Z,8.30
2022-12-18T00:32:20.249Z,8.00
2022-12-18T00:33:20.255Z,7.50
2022-12-18T00:34:20.216Z,7.70
2022-12-18T00:35:20.211Z,8.20
2022-12-18T00:36:20.195Z,8.60
2022-12-18T00:37:20.569Z,8.30
2022-12-18T00:38:20.190Z,9.50
2022-12-18T00:39:20.174Z,8.90
2022-12-18T00:40:20.167Z,8.70
2022-12-18T00:41:20.129Z,8.70
2022-12-18T00:42:20.161Z,9.10
2022-12-18T00:43:20.151Z,9.10
2022-12-18T00:44:20.120Z,8.80
2022-12-18T00:45:20.086Z,9.50
2022-12-18T00:46:20.154Z,9.80
2022-12-18T00:47:20.067Z,9.10
2022-12-18T00:48:20.091Z,10.20
2022-12-18T00:49:20.214Z,9.70
2022-12-18T00:50:20.057Z,9.40
2022-12-18T00:51:20.026Z,10.30
2022-12-18T00:52:20.026Z,9.40
2022-12-18T00:53:20.018Z,9.40
2022-12-18T00:54:20.014Z,9.40
2022-12-18T00:55:19.981Z,8.80
2022-12-18T00:56:19.986Z,8.90
2022-12-18T00:57:19.956Z,8.50
2022-12-18T00:58:19.978Z,8.50
2022-12-18T00:59:19.931Z,7.60
2022-12-18T01:00:19.932Z,7.90
2022-12-18T01:01:20.088Z,7.90
2022-12-18T01:02:20.036Z,7.50
2022-12-18T01:03:19.988Z,8.30
2022-12-18T01:04:19.912Z,8.30
2022-12-18T01:05:19.879Z,7.50
2022-12-18T01:06:19.896Z,7.00
2022-12-18T01:07:19.876Z,7.70
2022-12-18T01:08:19.892Z,8.80
2022-12-18T01:09:19.840Z,7.60
2022-12-18T01:10:19.847Z,8.10
2022-12-18T01:11:19.814Z,6.60
2022-12-18T01:12:19.840Z,7.70
2022-12-18T01:13:19.817Z,7.40
2022-12-18T01:14:19.801Z,7.50
2022-12-18T01:15:19.774Z,8.10
2022-12-18T01:16:19.793Z,6.80
2022-12-18T01:17:19.769Z,7.40
2022-12-18T01:18:19.794Z,8.70
2022-12-18T01:19:19.725Z,8.60
2022-12-18T01:20:19.746Z,7.50
2022-12-18T01:21:19.692Z,7.50
2022-12-18T01:22:19.705Z,8.20
2022-12-18T01:23:19.672Z,8.00
2022-12-18T01:24:19.703Z,8.80
2022-12-18T01:25:19.656Z,9.20
2022-12-18T01:26:19.664Z,8.50
2022-12-18T01:27:19.638Z,8.20
2022-12-18T01:28:19.633Z,8.90
2022-12-18T01:29:19.638Z,8.20
2022-12-18T01:30:19.612Z,8.50
2022-12-18T01:31:19.654Z,9.50
2022-12-18T01:32:19.590Z,8.70
2022-12-18T01:33:19.581Z,8.60
2022-12-18T01:34:19.580Z,9.90
2022-12-18T01:35:19.562Z,9.60
2022-12-18T01:36:19.542Z,8.70
2022-12-18T01:37:19.526Z,9.30
2022-12-18T01:38:19.530Z,9.30
2022-12-18T01:39:19.501Z,9.00
2022-12-18T01:40:19.509Z,8.50
2022-12-18T01:41:19.511Z,8.90
2022-12-18T01:42:19.494Z,10.60
2022-12-18T01:43:19.457Z,9.30
2022-12-18T01:44:19.473Z,8.40
2022-12-18T01:45:19.440Z,8.00
2022-12-18T01:46:19.529Z,8.70
2022-12-18T01:47:19.421Z,7.60
2022-12-18T01:48:19.419Z,7.60
2022-12-18T01:49:19.395Z,8.30
2022-12-18T01:50:19.393Z,8.10
2022-12-18T01:51:19.380Z,9.00
2022-12-18T01:52:19.381Z,9.60
2022-12-18T01:53:19.355Z,8.60
2022-12-18T01:54:19.359Z,8.90
2022-12-18T01:55:19.334Z,8.40
2022-12-18T01:56:19.357Z,9.30
2022-12-18T01:57:19.305Z,9.30
2022-12-18T01:58:19.311Z,11.70
2022-12-18T01:59:19.291Z,10.30
2022-12-18T02:00:19.291Z,9.10
2022-12-18T02:01:19.383Z,8.50
2022-12-18T02:02:19.351Z,8.50
2022-12-18T02:03:19.291Z,9.30
2022-12-18T02:04:19.247Z,9.60
2022-12-18T02:05:19.219Z,9.60
2022-12-18T02:06:19.240Z,10.60
2022-12-18T02:07:19.204Z,9.90
2022-12-18T02:08:19.206Z,10.50
2022-12-18T02:09:19.178Z,9.80
2022-12-18T02:10:19.177Z,9.70
2022-12-18T02:11:19.170Z,10.90
2022-12-18T02:12:19.158Z,11.50
2022-12-18T02:13:19.134Z,10.80
2022-12-18T02:14:19.136Z,11.00
2022-12-18T02:15:19.114Z,11.00
2022-12-18T02:16:19.189Z,12.10
2022-12-18T02:17:19.105Z,11.50
2022-12-18T02:18:19.092Z,11.80
2022-12-18T02:19:19.066Z,10.30
2022-12-18T02:20:19.091Z,10.70
2022-12-18T02:21:19.045Z,11.40
2022-12-18T02:22:19.070Z,11.50
2022-12-18T02:23:19.024Z,11.00
2022-12-18T02:24:19.027Z,11.90
2022-12-18T02:25:19.002Z,11.10
2022-12-18T02:26:19.008Z,10.30
2022-12-18T02:27:18.983Z,10.50
2022-12-18T02:28:19.008Z,10.00
2022-12-18T02:29:18.970Z,9.80
2022-12-18T02:30:18.974Z,9.90
2022-12-18T02:31:19.011Z,9.30
2022-12-18T02:32:18.944Z,9.60
2022-12-18T02:33:18.918Z,9.20
2022-12-18T02:34:18.933Z,10.10
2022-12-18T02:35:18.893Z,9.70
2022-12-18T02:36:18.896Z,8.70
2022-12-18T02:37:18.877Z,10.40
2022-12-18T02:38:18.886Z,11.40
2022-12-18T02:39:18.862Z,11.10
2022-12-18T02:40:18.852Z,10.70
2022-12-18T02:41:18.832Z,10.20
2022-12-18T02:42:18.823Z,9.60
2022-12-18T02:43:18.815Z,9.80
2022-12-18T02:44:18.833Z,10.30
2022-12-18T02:45:18.790Z,10.90
2022-12-18T02:46:18.831Z,10.10
2022-12-18T02:47:18.766Z,10.50
2022-12-18T02:48:18.774Z,9.30
2022-12-18T02:49:18.765Z,10.00
2022-12-18T02:50:18.747Z,11.30
2022-12-18T02:51:18.717Z,10.60
2022-12-18T02:52:18.725Z,11.20
2022-12-18T02:53:18.700Z,11.20
2022-12-18T02:54:18.705Z,9.10
2022-12-18T02:55:18.691Z,9.90
2022-12-18T02:56:18.680Z,9.80
2022-12-18T02:57:18.654Z,10.00
2022-12-18T02:58:18.664Z,10.50
2022-12-18T02:59:18.632Z,9.00
2022-12-18T03:00:18.650Z,9.60
2022-12-18T03:01:18.755Z,10.20
2022-12-18T03:02:18.832Z,11.30
2022-12-18T03:03:18.670Z,10.20
2022-12-18T03:04:18.605Z,9.30
2022-12-18T03:05:18.572Z,9.80
2022-12-18T03:06:18.585Z,10.70
2022-12-18T03:07:18.547Z,9.70
2022-12-18T03:08:18.550Z,10.10
2022-12-18T03:09:18.525Z,9.00
2022-12-18T03:10:18.533Z,8.90
2022-12-18T03:11:18.521Z,8.40
2022-12-18T03:12:18.514Z,9.20
2022-12-18T03:13:18.480Z,9.10
2022-12-18T03:14:18.480Z,8.50
2022-12-18T03:15:18.460Z,8.70
2022-12-18T03:16:18.519Z,9.10
2022-12-18T03:17:18.441Z,9.10
2022-12-18T03:18:18.446Z,8.70
2022-12-18T03:19:18.415Z,8.20
2022-12-18T03:20:18.419Z,7.90
2022-12-18T03:21:18.400Z,7.80
2022-12-18T03:22:18.413Z,9.10
2022-12-18T03:23:18.376Z,9.70
2022-12-18T03:24:18.382Z,9.30
2022-12-18T03:25:18.360Z,10.20
2022-12-18T03:26:18.358Z,9.00
2022-12-18T03:27:18.340Z,9.30
2022-12-18T03:28:18.340Z,8.50
2022-12-18T03:29:18.308Z,9.60
2022-12-18T03:30:18.307Z,8.40
2022-12-18T03:31:18.332Z,8.50
2022-12-18T03:32:18.313Z,10.40
2022-12-18T03:33:18.268Z,9.60
2022-12-18T03:34:18.298Z,10.30
2022-12-18T03:35:18.244Z,9.70
2022-12-18T03:36:18.250Z,9.80
2022-12-18T03:37:18.238Z,9.80
2022-12-18T03:38:18.227Z,9.20
2022-12-18T03:39:18.194Z,9.30
2022-12-18T03:40:18.204Z,9.10
2022-12-18T03:41:18.178Z,10.40
2022-12-18T03:42:18.199Z,8.60
2022-12-18T03:43:18.171Z,8.70
2022-12-18T03:44:18.166Z,9.90
2022-12-18T03:45:18.138Z,9.20
2022-12-18T03:46:18.180Z,9.60
2022-12-18T03:47:18.117Z,9.30
2022-12-18T03:48:18.122Z,10.40
2022-12-18T03:49:18.112Z,10.40
2022-12-18T03:50:18.096Z,10.50
2022-12-18T03:51:18.069Z,11.70
2022-12-18T03:52:18.078Z,10.20
2022-12-18T03:53:18.054Z,9.80
2022-12-18T03:54:18.068Z,9.40
2022-12-18T03:55:18.043Z,9.80
2022-12-18T03:56:18.028Z,8.90
2022-12-18T03:57:18.009Z,8.10
2022-12-18T03:58:18.006Z,8.30
2022-12-18T03:59:17.988Z,7.70
2022-12-18T04:00:18.006Z,8.60
2022-12-18T04:01:18.042Z,8.10
2022-12-18T04:02:18.123Z,8.10
2022-12-18T04:03:17.983Z,7.60
2022-12-18T04:04:18.099Z,7.70
2022-12-18T04:05:17.934Z,7.30
2022-12-18T04:06:17.923Z,7.40
2022-12-18T04:07:17.893Z,7.80
2022-12-18T04:08:17.910Z,9.00
2022-12-18T04:09:17.884Z,7.90
2022-12-18T04:10:17.890Z,8.90
2022-12-18T04:11:17.856Z,7.70
2022-12-18T04:12:17.865Z,8.20
2022-12-18T04:13:17.826Z,7.70
2022-12-18T04:14:18.609Z,8.60
2022-12-18T04:15:17.819Z,8.20
2022-12-18T04:16:17.869Z,8.70
2022-12-18T04:17:17.789Z,8.80
2022-12-18T04:18:17.795Z,8.30
2022-12-18T04:19:17.846Z,7.70
2022-12-18T04:20:17.782Z,8.00
2022-12-18T04:21:17.732Z,8.70
2022-12-18T04:22:17.739Z,9.10
2022-12-18T04:23:17.715Z,8.40
2022-12-18T04:24:17.765Z,8.20
2022-12-18T04:25:17.717Z,7.60
2022-12-18T04:26:17.710Z,8.20
2022-12-18T04:27:17.686Z,8.40
2022-12-18T04:28:17.681Z,9.30
2022-12-18T04:29:17.693Z,8.60
2022-12-18T04:30:17.661Z,8.70
2022-12-18T04:31:17.688Z,10.40
2022-12-18T04:32:17.640Z,8.80
2022-12-18T04:33:17.624Z,7.40
2022-12-18T04:34:17.682Z,8.10
2022-12-18T04:35:17.585Z,7.90
2022-12-18T04:36:17.602Z,9.60
2022-12-18T04:37:17.584Z,7.90
2022-12-18T04:38:17.580Z,8.00
2022-12-18T04:39:17.639Z,8.90
2022-12-18T04:40:17.552Z,8.70
2022-12-18T04:41:17.518Z,9.50
2022-12-18T04:42:17.542Z,9.10
2022-12-18T04:43:17.537Z,9.20
2022-12-18T04:44:17.600Z,8.60
2022-12-18T04:45:17.488Z,8.80
2022-12-18T04:46:17.525Z,8.40
2022-12-18T04:47:17.479Z,8.80
2022-12-18T04:48:17.459Z,9.00
2022-12-18T04:49:17.510Z,9.10
2022-12-18T04:50:17.441Z,10.20
2022-12-18T04:51:19.878Z,9.50
2022-12-18T04:52:18.449Z,8.80
2022-12-18T04:53:17.395Z,8.10
2022-12-18T04:54:17.510Z,8.50
2022-12-18T04:55:17.376Z,9.00
2022-12-18T04:56:17.369Z,8.80
2022-12-18T04:57:17.381Z,8.60
2022-12-18T04:58:17.359Z,8.70
2022-12-18T04:59:17.351Z,8.30
2022-12-18T05:00:17.321Z,8.00
2022-12-18T05:01:17.516Z,8.30
2022-12-18T05:02:17.376Z,9.00
2022-12-18T05:03:17.336Z,7.30
2022-12-18T05:04:17.434Z,8.30
2022-12-18T05:05:17.287Z,7.60
2022-12-18T05:06:17.250Z,7.20
2022-12-18T05:07:17.269Z,7.40
2022-12-18T05:08:17.234Z,8.60
2022-12-18T05:09:17.342Z,6.80
2022-12-18T05:10:17.207Z,7.50
2022-12-18T05:11:17.216Z,7.30
2022-12-18T05:12:17.189Z,8.40
2022-12-18T05:13:17.215Z,8.20
2022-12-18T05:14:17.177Z,7.50
2022-12-18T05:15:17.175Z,8.20
2022-12-18T05:16:17.310Z,7.70
2022-12-18T05:17:17.145Z,7.90
2022-12-18T05:18:17.127Z,7.70
2022-12-18T05:19:17.145Z,7.70
2022-12-18T05:20:17.104Z,7.70
2022-12-18T05:21:17.106Z,8.40
2022-12-18T05:22:17.091Z,8.40
2022-12-18T05:23:17.085Z,7.90
2022-12-18T05:24:17.056Z,7.30
2022-12-18T05:25:17.077Z,7.10
2022-12-18T05:26:17.037Z,7.80
2022-12-18T05:27:17.038Z,7.80
2022-12-18T05:28:17.021Z,7.30
2022-12-18T05:29:17.027Z,7.70
2022-12-18T05:30:17.009Z,7.50
2022-12-18T05:31:17.077Z,6.60
2022-12-18T05:32:16.967Z,7.00
2022-12-18T05:33:16.978Z,7.90
2022-12-18T05:34:16.955Z,8.20
2022-12-18T05:35:16.982Z,7.80
2022-12-18T05:36:16.941Z,8.10
2022-12-18T05:37:16.934Z,7.20
2022-12-18T05:38:16.912Z,6.80
2022-12-18T05:39:16.916Z,8.10
2022-12-18T05:40:16.900Z,7.70
2022-12-18T05:41:16.895Z,8.10
2022-12-18T05:42:16.870Z,8.70
2022-12-18T05:43:21.111Z,7.20
2022-12-18T05:44:16.838Z,7.70
2022-12-18T05:45:16.851Z,8.30
2022-12-18T05:46:16.876Z,7.10
2022-12-18T05:47:16.823Z,8.10
2022-12-18T05:48:16.798Z,8.40
2022-12-18T05:49:16.798Z,7.80
2022-12-18T05:50:16.772Z,7.90
2022-12-18T05:51:16.785Z,7.90
2022-12-18T05:52:16.773Z,7.70
2022-12-18T05:53:16.760Z,8.10
2022-12-18T05:54:16.734Z,7.90
2022-12-18T05:55:16.738Z,8.00
2022-12-18T05:56:16.712Z,8.00
2022-12-18T05:57:16.733Z,7.80
2022-12-18T05:58:16.692Z,7.60
2022-12-18T05:59:16.691Z,8.80
2022-12-18T06:00:16.671Z,8.40
2022-12-18T06:01:16.774Z,8.20
2022-12-18T06:02:16.737Z,8.00
2022-12-18T06:03:16.806Z,8.10
2022-12-18T06:04:16.668Z,8.60
2022-12-18T06:05:16.633Z,8.50
2022-12-18T06:06:16.601Z,7.80
2022-12-18T06:07:16.606Z,8.40
2022-12-18T06:08:16.595Z,8.30
2022-12-18T06:09:16.589Z,7.90
2022-12-18T06:10:16.553Z,7.50
2022-12-18T06:11:16.559Z,8.50
2022-12-18T06:12:16.551Z,7.10
2022-12-18T06:13:16.560Z,7.20
2022-12-18T06:14:16.511Z,7.50
2022-12-18T06:15:16.519Z,7.90
2022-12-18T06:16:16.544Z,7.60
2022-12-18T06:17:16.507Z,6.80
2022-12-18T06:18:16.489Z,7.80
2022-12-18T06:19:16.479Z,7.90
2022-12-18T06:20:16.457Z,7.60
2022-12-18T06:21:16.447Z,8.40
2022-12-18T06:22:16.435Z,8.20
2022-12-18T06:23:16.447Z,7.70
2022-12-18T06:24:16.410Z,8.10
2022-12-18T06:25:16.415Z,7.70
2022-12-18T06:26:16.383Z,7.90
2022-12-18T06:27:16.398Z,8.10
2022-12-18T06:28:16.376Z,10.00
2022-12-18T06:29:16.370Z,9.20
2022-12-18T06:30:16.348Z,8.40
2022-12-18T06:31:16.384Z,9.20
2022-12-18T06:32:16.325Z,9.00
2022-12-18T06:33:16.338Z,7.90
2022-12-18T06:34:16.297Z,7.90
2022-12-18T06:35:16.298Z,8.60
2022-12-18T06:36:16.278Z,7.50
2022-12-18T06:37:16.286Z,8.00
2022-12-18T06:38:16.278Z,7.60
2022-12-18T06:39:16.274Z,7.30
2022-12-18T06:40:16.228Z,7.20
2022-12-18T06:41:16.241Z,7.70
2022-12-18T06:42:16.205Z,7.40
2022-12-18T06:43:16.222Z,6.90
2022-12-18T06:44:16.198Z,7.50
2022-12-18T06:45:16.201Z,6.80
2022-12-18T06:46:16.214Z,6.30
2022-12-18T06:47:16.171Z,7.10
2022-12-18T06:48:16.161Z,6.30
2022-12-18T06:49:16.150Z,6.70
2022-12-18T06:50:16.128Z,6.60
2022-12-18T06:51:16.126Z,6.90
2022-12-18T06:52:16.098Z,7.60
2022-12-18T06:53:16.122Z,7.40
2022-12-18T06:54:16.075Z,6.70
2022-12-18T06:55:16.092Z,6.40
2022-12-18T06:56:16.058Z,6.40
2022-12-18T06:57:16.065Z,6.70
2022-12-18T06:58:16.063Z,7.00
2022-12-18T06:59:16.061Z,7.10
2022-12-18T07:00:16.026Z,7.10
2022-12-18T07:01:16.140Z,7.50
2022-12-18T07:02:16.097Z,6.70
2022-12-18T07:03:16.040Z,6.80
2022-12-18T07:04:15.970Z,6.80
2022-12-18T07:05:15.983Z,7.50
2022-12-18T07:06:15.956Z,7.30
2022-12-18T07:07:15.965Z,8.20
2022-12-18T07:08:15.942Z,7.20
2022-12-18T07:09:15.988Z,8.00
2022-12-18T07:10:15.908Z,7.60
2022-12-18T07:11:15.918Z,7.40
2022-12-18T07:12:15.889Z,7.20
2022-12-18T07:13:15.903Z,7.70
2022-12-18T07:14:15.863Z,7.50
2022-12-18T07:15:15.893Z,8.20
2022-12-18T07:16:22.313Z,7.60
2022-12-18T07:17:16.853Z,8.10
2022-12-18T07:18:15.831Z,8.10
2022-12-18T07:19:15.822Z,8.40
2022-12-18T07:20:15.801Z,7.10
2022-12-18T07:21:15.822Z,8.20
2022-12-18T07:22:15.782Z,8.40
2022-12-18T07:23:15.789Z,8.20
2022-12-18T07:24:15.758Z,8.10
2022-12-18T07:25:15.762Z,9.00
2022-12-18T07:26:15.750Z,8.00
2022-12-18T07:27:15.738Z,8.30
2022-12-18T07:28:17.521Z,7.90
2022-12-18T07:29:15.729Z,7.70
2022-12-18T07:30:15.692Z,8.80
2022-12-18T07:31:15.805Z,9.20
2022-12-18T07:32:15.673Z,7.90
2022-12-18T07:33:15.670Z,7.00
2022-12-18T07:34:15.649Z,6.80
2022-12-18T07:35:17.439Z,7.40
2022-12-18T07:36:16.636Z,8.40
2022-12-18T07:37:15.630Z,7.40
2022-12-18T07:38:15.607Z,8.50
2022-12-18T07:39:15.605Z,8.00
2022-12-18T07:40:15.582Z,9.20
2022-12-18T07:41:15.607Z,9.60
2022-12-18T07:42:15.560Z,9.40
2022-12-18T07:43:15.569Z,8.40
2022-12-18T07:44:15.554Z,10.00
2022-12-18T07:45:15.552Z,9.20
2022-12-18T07:46:15.602Z,9.20
2022-12-18T07:47:15.520Z,8.30
2022-12-18T07:48:15.502Z,8.30
2022-12-18T07:49:15.502Z,8.50
2022-12-18T07:50:15.480Z,8.90
2022-12-18T07:51:15.480Z,8.90
2022-12-18T07:52:15.492Z,8.00
2022-12-18T07:53:15.445Z,8.10
2022-12-18T07:54:15.452Z,8.80
2022-12-18T07:55:15.438Z,8.70
2022-12-18T07:56:27.166Z,8.30
2022-12-18T07:57:41.342Z,8.50
2022-12-18T07:58:16.388Z,8.60
2022-12-18T07:59:15.396Z,8.00
2022-12-18T08:00:15.371Z,8.70
2022-12-18T08:01:15.496Z,8.50
2022-12-18T08:02:15.477Z,9.10
2022-12-18T08:03:15.424Z,9.00
2022-12-18T08:04:15.335Z,8.20
2022-12-18T08:05:15.339Z,8.40
2022-12-18T08:06:15.303Z,8.50
2022-12-18T08:07:15.321Z,7.70
2022-12-18T08:08:15.284Z,7.70
2022-12-18T08:09:15.287Z,7.70
2022-12-18T08:10:15.257Z,7.90
2022-12-18T08:11:15.272Z,7.90
2022-12-18T08:12:15.242Z,7.50
2022-12-18T08:13:15.236Z,8.20
2022-12-18T08:14:15.234Z,8.10
2022-12-18T08:15:15.211Z,7.60
2022-12-18T08:16:15.271Z,8.60
2022-12-18T08:17:15.192Z,8.10
2022-12-18T08:18:15.173Z,9.00
2022-12-18T08:19:15.176Z,8.30
2022-12-18T08:20:15.161Z,8.10
2022-12-18T08:21:15.141Z,8.00
2022-12-18T08:22:15.132Z,9.20
2022-12-18T08:23:15.126Z,8.30
2022-12-18T08:24:15.115Z,8.90
2022-12-18T08:25:15.114Z,8.80
2022-12-18T08:26:15.082Z,9.20
2022-12-18T08:27:30.629Z,8.70
2022-12-18T08:28:16.061Z,8.50
2022-12-18T08:29:19.964Z,9.30
2022-12-18T08:30:16.038Z,8.60
2022-12-18T08:31:15.093Z,9.40
2022-12-18T08:32:15.083Z,10.00
2022-12-18T08:33:15.044Z,9.90
2022-12-18T08:34:15.006Z,9.70
2022-12-18T08:35:18.605Z,10.00
2022-12-18T08:36:14.969Z,9.40
2022-12-18T08:37:14.974Z,10.80
2022-12-18T08:38:14.943Z,10.40
2022-12-18T08:39:14.946Z,11.00
2022-12-18T08:40:14.942Z,9.90
2022-12-18T08:41:14.935Z,10.80
2022-12-18T08:42:14.905Z,10.40
2022-12-18T08:43:14.921Z,11.10
2022-12-18T08:44:14.890Z,10.90
2022-12-18T08:45:14.884Z,9.70
2022-12-18T08:46:14.919Z,9.80
2022-12-18T08:47:14.868Z,9.50
2022-12-18T08:48:20.595Z,9.70
2022-12-18T08:49:15.848Z,9.00
2022-12-18T08:50:14.826Z,10.50
2022-12-18T08:51:14.843Z,10.10
2022-12-18T08:52:14.799Z,9.60
2022-12-18T08:53:14.803Z,11.40
2022-12-18T08:54:14.799Z,10.20
2022-12-18T08:55:14.783Z,10.20
2022-12-18T08:56:14.759Z,10.10
2022-12-18T08:57:14.786Z,9.50
2022-12-18T08:58:14.734Z,9.20
2022-12-18T08:59:19.458Z,10.00
2022-12-18T09:00:15.706Z,9.10
2022-12-18T09:01:14.913Z,9.60
2022-12-18T09:02:14.817Z,9.20
2022-12-18T09:03:14.746Z,9.00
2022-12-18T09:04:14.660Z,9.90
2022-12-18T09:05:14.670Z,9.10
2022-12-18T09:06:14.637Z,9.10
2022-12-18T09:07:14.644Z,9.70
2022-12-18T09:08:14.625Z,9.00
2022-12-18T09:09:14.655Z,9.30
2022-12-18T09:10:14.606Z,9.60
2022-12-18T09:11:14.609Z,9.40
2022-12-18T09:12:14.608Z,10.30
2022-12-18T09:13:14.598Z,9.80
2022-12-18T09:14:14.598Z,10.20
2022-12-18T09:15:14.569Z,9.80
2022-12-18T09:16:14.599Z,11.00
2022-12-18T09:17:14.566Z,11.20
2022-12-18T09:18:14.528Z,10.80
2022-12-18T09:19:14.500Z,10.60
2022-12-18T09:20:14.518Z,12.00
2022-12-18T09:21:14.480Z,11.80
2022-12-18T09:22:14.485Z,12.00
2022-12-18T09:23:14.458Z,11.40
2022-12-18T09:24:14.452Z,10.50
2022-12-18T09:25:14.465Z,11.60
2022-12-18T09:26:14.442Z,11.80
2022-12-18T09:27:14.440Z,10.70
2022-12-18T09:28:14.426Z,10.10
2022-12-18T09:29:14.398Z,10.40
2022-12-18T09:30:14.421Z,11.40
2022-12-18T09:31:14.432Z,11.50
2022-12-18T09:32:18.931Z,11.40
2022-12-18T09:33:15.358Z,10.90
2022-12-18T09:34:14.353Z,10.50
2022-12-18T09:35:14.323Z,10.10
2022-12-18T09:36:14.338Z,12.40
2022-12-18T09:37:14.299Z,10.60
2022-12-18T09:38:14.311Z,10.40
2022-12-18T09:39:14.285Z,11.60
2022-12-18T09:40:14.275Z,10.80
2022-12-18T09:41:14.284Z,10.90
2022-12-18T09:42:14.277Z,11.00
2022-12-18T09:43:14.248Z,11.40
2022-12-18T09:44:14.329Z,10.40
2022-12-18T09:45:14.297Z,12.00
2022-12-18T09:46:14.263Z,11.30
2022-12-18T09:47:14.207Z,10.70
2022-12-18T09:48:14.202Z,11.60
2022-12-18T09:49:14.176Z,10.50
2022-12-18T09:50:17.320Z,10.00
2022-12-18T09:51:14.146Z,11.50
2022-12-18T09:52:14.150Z,11.00
2022-12-18T09:53:14.137Z,10.90
2022-12-18T09:54:14.137Z,10.80
2022-12-18T09:55:14.108Z,11.60
2022-12-18T09:56:14.134Z,9.60
2022-12-18T09:57:14.083Z,11.10
2022-12-18T09:58:14.097Z,11.10
2022-12-18T09:59:14.061Z,9.60
2022-12-18T10:00:14.056Z,10.00
2022-12-18T10:01:14.078Z,11.00
2022-12-18T10:02:14.100Z,10.50
2022-12-18T10:03:14.144Z,11.10
2022-12-18T10:04:14.074Z,10.60
2022-12-18T10:05:14.005Z,10.90
2022-12-18T10:06:14.004Z,12.20
2022-12-18T10:07:13.965Z,10.10
2022-12-18T10:08:13.998Z,9.90
2022-12-18T10:09:13.944Z,9.30
2022-12-18T10:10:13.954Z,10.70
2022-12-18T10:11:13.926Z,9.70
2022-12-18T10:12:13.928Z,10.10
2022-12-18T10:13:13.915Z,9.40
2022-12-18T10:14:13.924Z,10.70
2022-12-18T10:15:13.884Z,10.00
2022-12-18T10:16:13.928Z,10.20
2022-12-18T10:17:13.898Z,9.80
2022-12-18T10:18:17.359Z,10.60
2022-12-18T10:19:14.865Z,10.00
2022-12-18T10:20:13.845Z,10.60
2022-12-18T10:21:13.815Z,11.60
2022-12-18T10:22:13.826Z,10.60
2022-12-18T10:23:13.795Z,9.80
2022-12-18T10:24:13.813Z,11.10
2022-12-18T10:25:13.768Z,9.30
2022-12-18T10:26:13.776Z,10.70
2022-12-18T10:27:13.744Z,11.00
2022-12-18T10:28:13.754Z,10.70
2022-12-18T10:29:13.734Z,11.10
2022-12-18T10:30:13.815Z,11.20
2022-12-18T10:31:13.705Z,11.00
2022-12-18T10:32:13.715Z,11.10
2022-12-18T10:33:13.678Z,11.30
2022-12-18T10:34:13.692Z,10.30
2022-12-18T10:35:13.665Z,10.00
2022-12-18T10:36:13.706Z,10.80
2022-12-18T10:37:13.643Z,10.80
2022-12-18T10:38:13.648Z,10.80
2022-12-18T10:39:13.621Z,10.50
2022-12-18T10:40:19.868Z,11.20
2022-12-18T10:41:14.618Z,10.70
2022-12-18T10:42:13.604Z,11.00
2022-12-18T10:43:13.573Z,10.40
2022-12-18T10:44:13.582Z,10.70
2022-12-18T10:45:13.556Z,10.50
2022-12-18T10:46:13.707Z,10.30
2022-12-18T10:47:13.538Z,10.50
2022-12-18T10:48:13.532Z,9.90
2022-12-18T10:49:13.528Z,10.60
2022-12-18T10:50:13.539Z,9.40
2022-12-18T10:51:13.846Z,9.90
2022-12-18T10:52:13.511Z,10.10
2022-12-18T10:53:13.466Z,10.10
2022-12-18T10:54:13.474Z,9.70
2022-12-18T10:55:13.442Z,10.10
2022-12-18T10:56:13.451Z,9.60
2022-12-18T10:57:13.444Z,10.10
2022-12-18T10:58:13.432Z,9.80
2022-12-18T10:59:13.402Z,10.20
2022-12-18T11:00:13.413Z,9.30
2022-12-18T11:01:13.424Z,10.10
2022-12-18T11:02:13.533Z,11.40
2022-12-18T11:03:13.510Z,10.40
2022-12-18T11:04:13.348Z,9.70
2022-12-18T11:05:13.345Z,9.50
2022-12-18T11:06:13.340Z,10.70
2022-12-18T11:07:13.327Z,9.20
2022-12-18T11:08:13.317Z,9.40
2022-12-18T11:09:15.546Z,10.20
2022-12-18T11:10:13.299Z,9.20
2022-12-18T11:11:13.263Z,10.60
2022-12-18T11:12:13.295Z,11.20
2022-12-18T11:13:13.243Z,11.90
2022-12-18T11:14:13.246Z,10.30
2022-12-18T11:15:13.221Z,11.20
2022-12-18T11:16:13.300Z,11.50
2022-12-18T11:17:28.448Z,10.80
2022-12-18T11:18:14.220Z,10.60
2022-12-18T11:19:13.181Z,11.30
2022-12-18T11:20:13.180Z,10.80
2022-12-18T11:21:13.148Z,10.00
2022-12-18T11:22:13.154Z,11.30
2022-12-18T11:23:13.155Z,10.40
2022-12-18T11:24:13.139Z,11.80
2022-12-18T11:26:14.115Z,10.40
2022-12-18T11:27:13.078Z,11.60
2022-12-18T11:28:13.110Z,11.10
2022-12-18T11:29:13.070Z,11.80
2022-12-18T11:30:13.071Z,11.50
2022-12-18T11:31:13.089Z,11.20
2022-12-18T11:32:13.057Z,10.60
2022-12-18T11:33:13.017Z,10.30
2022-12-18T11:34:28.696Z,11.20
2022-12-18T11:35:14.006Z,10.10
2022-12-18T11:36:13.008Z,10.00
2022-12-18T11:37:12.994Z,10.30
2022-12-18T11:38:12.986Z,10.20
2022-12-18T11:39:12.953Z,10.30
2022-12-18T11:40:12.988Z,10.20
2022-12-18T11:41:13.009Z,11.20
2022-12-18T11:42:13.217Z,11.60
2022-12-18T11:43:12.919Z,11.30
2022-12-18T11:44:12.926Z,10.50
2022-12-18T11:45:12.901Z,11.20
2022-12-18T11:46:19.117Z,11.10
2022-12-18T11:47:13.857Z,9.60
2022-12-18T11:48:12.872Z,10.20
2022-12-18T11:49:12.847Z,10.00
2022-12-18T11:50:12.887Z,10.30
2022-12-18T11:51:12.820Z,9.30
2022-12-18T11:52:12.839Z,10.10
2022-12-18T11:53:12.802Z,10.20
2022-12-18T11:54:12.809Z,9.70
2022-12-18T11:55:12.781Z,9.80
2022-12-18T11:56:12.806Z,8.80
2022-12-18T11:57:12.820Z,10.40
2022-12-18T11:58:12.765Z,9.10
2022-12-18T11:59:12.735Z,9.80
2022-12-18T12:00:12.757Z,10.00
2022-12-18T12:01:12.747Z,10.20
2022-12-18T12:02:12.759Z,10.90
2022-12-18T12:03:12.718Z,10.20
2022-12-18T12:04:12.748Z,10.20
2022-12-18T12:05:12.671Z,10.10
2022-12-18T12:06:12.670Z,10.00
2022-12-18T12:07:12.666Z,10.30
2022-12-18T12:08:12.667Z,9.40
2022-12-18T12:09:12.626Z,9.70
2022-12-18T12:10:12.631Z,9.80
2022-12-18T12:11:12.605Z,9.50
2022-12-18T12:12:12.616Z,10.70
2022-12-18T12:13:12.579Z,9.40
2022-12-18T12:14:12.587Z,10.50
2022-12-18T12:15:12.554Z,9.40
2022-12-18T12:16:12.602Z,9.40
2022-12-18T12:17:12.553Z,9.80
2022-12-18T12:18:12.553Z,9.50
2022-12-18T12:19:12.532Z,9.10
2022-12-18T12:20:12.517Z,10.50
2022-12-18T12:21:12.487Z,9.80
2022-12-18T12:22:12.515Z,9.40
2022-12-18T12:23:12.521Z,10.20
2022-12-18T12:24:12.469Z,10.00
2022-12-18T12:25:12.444Z,10.00
2022-12-18T12:26:12.470Z,11.00
2022-12-18T12:27:12.421Z,10.40
2022-12-18T12:28:12.441Z,10.20
2022-12-18T12:29:14.412Z,11.20
2022-12-18T12:30:13.479Z,10.10
2022-12-18T12:31:12.438Z,11.50
2022-12-18T12:32:12.389Z,10.70
2022-12-18T12:33:12.376Z,12.20
2022-12-18T12:34:12.444Z,11.00
2022-12-18T12:35:12.339Z,9.80
2022-12-18T12:36:12.351Z,10.60
2022-12-18T12:37:12.328Z,12.00
2022-12-18T12:38:12.345Z,12.00
2022-12-18T12:39:12.321Z,11.90
2022-12-18T12:40:48.289Z,12.00
2022-12-18T12:41:13.278Z,12.80
2022-12-18T12:42:12.282Z,11.70
2022-12-18T12:43:12.246Z,11.40
2022-12-18T12:44:12.273Z,12.50
2022-12-18T12:45:12.222Z,13.00
2022-12-18T12:46:12.278Z,12.90
2022-12-18T12:47:12.205Z,12.50
2022-12-18T12:48:12.209Z,12.00
2022-12-18T12:49:12.223Z,12.00
2022-12-18T12:50:12.210Z,10.60
2022-12-18T12:51:12.193Z,11.20
2022-12-18T12:52:12.221Z,11.30
2022-12-18T12:53:12.142Z,11.60
2022-12-18T12:54:12.142Z,12.40
2022-12-18T12:55:14.845Z,11.20
2022-12-18T12:56:12.122Z,11.00
2022-12-18T12:57:12.088Z,10.70
2022-12-18T12:58:12.101Z,12.30
2022-12-18T12:59:12.073Z,12.40
2022-12-18T13:00:12.102Z,12.40
2022-12-18T13:01:12.163Z,11.80
2022-12-18T13:02:12.183Z,12.30
2022-12-18T13:03:12.035Z,11.90
2022-12-18T13:04:12.044Z,11.40
2022-12-18T13:05:12.065Z,13.00
2022-12-18T13:06:12.018Z,12.60
2022-12-18T13:07:12.009Z,12.70
2022-12-18T13:08:11.994Z,11.60
2022-12-18T13:09:11.993Z,12.20
2022-12-18T13:10:11.945Z,12.40